createdAt,value
2019-02-22T00:00:49.753Z,18.35
2019-02-22T00:01:25.935Z,15.35
2019-02-22T00:02:02.168Z,15.50
2019-02-22T00:02:36.769Z,15.50
2019-02-22T00:03:11.369Z,16.85
2019-02-22T00:03:45.940Z,18.05
2019-02-22T00:04:20.553Z,17.80
2019-02-22T00:04:55.066Z,16.75
2019-02-22T00:05:29.568Z,17.35
2019-02-22T00:06:04.082Z,16.42
2019-02-22T00:06:38.652Z,17.27
2019-02-22T00:07:13.169Z,15.68
2019-02-22T00:07:47.708Z,16.42
2019-02-22T00:08:22.261Z,17.55
2019-02-22T00:08:56.787Z,16.27
2019-02-22T00:09:31.450Z,17.52
2019-02-22T00:10:06.711Z,17.82
2019-02-22T00:10:41.226Z,14.78
2019-02-22T00:11:15.825Z,16.57
2019-02-22T00:11:50.387Z,15.70
2019-02-22T00:12:25.012Z,16.60
2019-02-22T00:12:59.515Z,16.90
2019-02-22T00:13:34.034Z,15.93
2019-02-22T00:14:08.619Z,15.65
2019-02-22T00:14:43.125Z,15.48
2019-02-22T00:15:17.654Z,15.98
2019-02-22T00:15:52.410Z,15.23
2019-02-22T00:16:32.628Z,15.25
2019-02-22T00:17:07.130Z,16.50
2019-02-22T00:17:41.639Z,15.25
2019-02-22T00:18:16.162Z,16.70
2019-02-22T00:18:50.727Z,14.93
2019-02-22T00:19:25.237Z,15.85
2019-02-22T00:19:59.765Z,16.07
2019-02-22T00:20:35.233Z,15.10
2019-02-22T00:21:09.800Z,15.15
2019-02-22T00:21:44.897Z,13.58
2019-02-22T00:22:19.466Z,14.30
2019-02-22T00:22:54.051Z,15.60
2019-02-22T00:23:28.615Z,14.75
2019-02-22T00:24:03.218Z,15.95
2019-02-22T00:24:37.793Z,15.58
2019-02-22T00:25:12.591Z,14.00
2019-02-22T00:25:47.093Z,14.23
2019-02-22T00:26:21.615Z,15.68
2019-02-22T00:26:56.162Z,15.25
2019-02-22T00:27:30.745Z,15.13
2019-02-22T00:28:05.264Z,13.90
2019-02-22T00:28:39.847Z,13.32
2019-02-22T00:29:14.353Z,14.28
2019-02-22T00:29:48.879Z,14.68
2019-02-22T00:30:23.399Z,13.85
2019-02-22T00:30:57.904Z,14.90
2019-02-22T00:31:32.423Z,13.90
2019-02-22T00:32:06.949Z,16.25
2019-02-22T00:32:42.655Z,12.98
2019-02-22T00:33:17.349Z,14.38
2019-02-22T00:33:51.937Z,15.30
2019-02-22T00:34:26.520Z,14.73
2019-02-22T00:35:01.116Z,15.35
2019-02-22T00:35:35.628Z,13.98
2019-02-22T00:36:10.304Z,13.65
2019-02-22T00:36:45.219Z,13.48
2019-02-22T00:37:19.893Z,16.65
2019-02-22T00:37:54.944Z,14.07
2019-02-22T00:38:29.457Z,15.93
2019-02-22T00:39:04.433Z,14.65
2019-02-22T00:39:38.957Z,16.07
2019-02-22T00:40:13.541Z,14.00
2019-02-22T00:40:49.536Z,14.55
2019-02-22T00:41:24.077Z,15.40
2019-02-22T00:41:58.617Z,14.18
2019-02-22T00:42:33.118Z,13.70
2019-02-22T00:43:07.601Z,13.55
2019-02-22T00:43:42.508Z,13.70
2019-02-22T00:44:17.016Z,17.87
2019-02-22T00:44:51.519Z,14.87
2019-02-22T00:45:26.031Z,13.40
2019-02-22T00:46:00.773Z,14.15
2019-02-22T00:46:35.274Z,14.30
2019-02-22T00:47:09.877Z,14.43
2019-02-22T00:47:44.428Z,16.32
2019-02-22T00:48:18.953Z,13.18
2019-02-22T00:48:53.537Z,12.68
2019-02-22T00:49:28.113Z,13.45
2019-02-22T00:50:02.613Z,14.85
2019-02-22T00:50:37.184Z,15.08
2019-02-22T00:51:11.697Z,12.70
2019-02-22T00:51:46.204Z,15.20
2019-02-22T00:52:20.702Z,14.78
2019-02-22T00:52:55.571Z,14.33
2019-02-22T00:53:30.104Z,16.07
2019-02-22T00:54:04.758Z,16.15
2019-02-22T00:54:39.264Z,15.48
2019-02-22T00:55:14.893Z,15.90
2019-02-22T00:55:49.456Z,15.65
2019-02-22T00:56:23.964Z,15.05
2019-02-22T00:56:59.461Z,15.40
2019-02-22T00:57:34.131Z,15.55
2019-02-22T00:58:08.644Z,15.00
2019-02-22T00:58:43.211Z,16.30
2019-02-22T00:59:18.060Z,17.17
2019-02-22T00:59:52.668Z,17.15
2019-02-22T01:00:28.260Z,17.12
2019-02-22T01:01:02.786Z,17.50
2019-02-22T01:01:37.333Z,17.95
2019-02-22T01:02:11.920Z,17.55
2019-02-22T01:02:47.018Z,18.10
2019-02-22T01:03:21.524Z,16.35
2019-02-22T01:03:56.051Z,18.23
2019-02-22T01:04:30.972Z,16.73
2019-02-22T01:05:06.206Z,16.70
2019-02-22T01:05:40.723Z,18.90
2019-02-22T01:06:15.301Z,17.57
2019-02-22T01:06:49.855Z,16.75
2019-02-22T01:07:24.356Z,17.98
2019-02-22T01:07:59.151Z,17.75
2019-02-22T01:08:33.669Z,18.12
2019-02-22T01:09:08.182Z,18.17
2019-02-22T01:09:42.741Z,17.52
2019-02-22T01:10:17.234Z,17.77
2019-02-22T01:10:51.785Z,15.88
2019-02-22T01:11:26.301Z,18.60
2019-02-22T01:12:00.812Z,17.62
2019-02-22T01:12:35.398Z,17.62
2019-02-22T01:13:10.036Z,17.92
2019-02-22T01:13:44.560Z,18.45
2019-02-22T01:14:19.073Z,18.07
2019-02-22T01:14:53.585Z,18.17
2019-02-22T01:15:28.165Z,17.35
2019-02-22T01:16:02.674Z,17.60
2019-02-22T01:16:37.179Z,17.75
2019-02-22T01:17:11.756Z,19.30
2019-02-22T01:17:46.364Z,17.55
2019-02-22T01:18:20.867Z,18.65
2019-02-22T01:18:55.386Z,16.07
2019-02-22T01:19:29.986Z,18.90
2019-02-22T01:20:05.627Z,18.67
2019-02-22T01:20:40.130Z,17.92
2019-02-22T01:21:14.809Z,19.37
2019-02-22T01:21:49.373Z,19.98
2019-02-22T01:22:23.954Z,17.75
2019-02-22T01:22:58.535Z,17.70
2019-02-22T01:23:33.112Z,20.12
2019-02-22T01:24:07.718Z,20.17
2019-02-22T01:24:42.270Z,17.85
2019-02-22T01:25:16.771Z,18.60
2019-02-22T01:25:51.286Z,17.98
2019-02-22T01:26:25.878Z,18.80
2019-02-22T01:27:00.450Z,17.37
2019-02-22T01:27:34.970Z,19.80
2019-02-22T01:28:09.537Z,19.20
2019-02-22T01:28:44.060Z,17.95
2019-02-22T01:29:18.598Z,19.25
2019-02-22T01:29:53.146Z,19.15
2019-02-22T01:30:27.711Z,17.27
2019-02-22T01:31:02.205Z,18.52
2019-02-22T01:31:36.730Z,18.27
2019-02-22T01:32:11.229Z,17.55
2019-02-22T01:32:46.304Z,17.75
2019-02-22T01:33:20.814Z,19.48
2019-02-22T01:33:55.409Z,19.32
2019-02-22T01:34:29.888Z,18.12
2019-02-22T01:35:04.609Z,18.10
2019-02-22T01:35:39.147Z,17.10
2019-02-22T01:36:13.710Z,19.87
2019-02-22T01:36:48.232Z,18.07
2019-02-22T01:37:22.758Z,17.73
2019-02-22T01:37:57.507Z,18.42
2019-02-22T01:38:32.090Z,19.30
2019-02-22T01:39:07.165Z,19.27
2019-02-22T01:39:41.690Z,17.57
2019-02-22T01:40:16.278Z,18.37
2019-02-22T01:40:50.801Z,19.35
2019-02-22T01:41:25.393Z,16.80
2019-02-22T01:41:59.955Z,18.10
2019-02-22T01:42:34.528Z,16.87
2019-02-22T01:43:09.043Z,18.67
2019-02-22T01:43:43.549Z,17.92
2019-02-22T01:44:22.380Z,16.75
2019-02-22T01:44:56.941Z,18.07
2019-02-22T01:45:31.464Z,17.57
2019-02-22T01:46:05.963Z,18.45
2019-02-22T01:46:40.473Z,18.70
2019-02-22T01:47:14.996Z,18.37
2019-02-22T01:47:49.490Z,18.12
2019-02-22T01:48:23.996Z,18.20
2019-02-22T01:48:58.738Z,17.17
2019-02-22T01:49:33.248Z,17.80
2019-02-22T01:50:08.098Z,17.65
2019-02-22T01:50:44.039Z,16.93
2019-02-22T01:51:18.542Z,16.70
2019-02-22T01:51:53.193Z,16.95
2019-02-22T01:52:27.690Z,19.50
2019-02-22T01:53:02.204Z,17.15
2019-02-22T01:53:38.313Z,16.97
2019-02-22T01:54:13.978Z,18.37
2019-02-22T01:54:48.532Z,18.57
2019-02-22T01:55:24.966Z,16.93
2019-02-22T01:55:59.522Z,18.85
2019-02-22T01:56:34.609Z,17.70
2019-02-22T01:57:09.146Z,17.23
2019-02-22T01:57:43.740Z,18.35
2019-02-22T01:58:18.314Z,17.52
2019-02-22T01:58:52.938Z,17.65
2019-02-22T01:59:27.519Z,17.48
2019-02-22T02:00:02.077Z,19.55
2019-02-22T02:00:37.210Z,17.50
2019-02-22T02:01:11.791Z,17.90
2019-02-22T02:01:46.384Z,16.67
2019-02-22T02:02:20.969Z,16.67
2019-02-22T02:02:55.508Z,17.77
2019-02-22T02:03:30.148Z,18.50
2019-02-22T02:04:04.835Z,17.98
2019-02-22T02:04:39.366Z,18.45
2019-02-22T02:05:13.968Z,18.00
2019-02-22T02:05:48.526Z,17.45
2019-02-22T02:06:23.036Z,16.57
2019-02-22T02:06:57.545Z,19.40
2019-02-22T02:07:32.110Z,18.00
2019-02-22T02:08:06.701Z,19.10
2019-02-22T02:08:41.210Z,18.62
2019-02-22T02:09:15.793Z,18.12
2019-02-22T02:09:50.360Z,18.55
2019-02-22T02:10:25.154Z,18.05
2019-02-22T02:10:59.793Z,17.70
2019-02-22T02:11:34.325Z,16.60
2019-02-22T02:12:08.883Z,16.05
2019-02-22T02:12:43.389Z,17.65
2019-02-22T02:13:18.050Z,16.82
2019-02-22T02:13:52.576Z,16.45
2019-02-22T02:14:27.172Z,18.10
2019-02-22T02:15:01.774Z,17.02
2019-02-22T02:15:36.477Z,17.17
2019-02-22T02:16:11.060Z,17.48
2019-02-22T02:16:45.790Z,17.02
2019-02-22T02:17:20.284Z,16.20
2019-02-22T02:17:54.883Z,15.83
2019-02-22T02:18:29.580Z,17.95
2019-02-22T02:19:04.086Z,16.95
2019-02-22T02:19:39.168Z,17.25
2019-02-22T02:20:14.141Z,16.60
2019-02-22T02:20:48.749Z,17.52
2019-02-22T02:21:23.302Z,16.70
2019-02-22T02:21:57.833Z,16.35
2019-02-22T02:22:32.332Z,14.83
2019-02-22T02:23:07.245Z,17.00
2019-02-22T02:23:41.811Z,16.50
2019-02-22T02:24:16.358Z,16.45
2019-02-22T02:24:50.985Z,16.40
2019-02-22T02:25:25.581Z,18.45
2019-02-22T02:26:00.207Z,16.97
2019-02-22T02:26:34.717Z,16.30
2019-02-22T02:27:09.284Z,16.80
2019-02-22T02:27:43.864Z,17.82
2019-02-22T02:28:18.364Z,16.20
2019-02-22T02:28:52.865Z,16.12
2019-02-22T02:29:27.384Z,16.65
2019-02-22T02:30:01.963Z,16.42
2019-02-22T02:30:36.534Z,14.53
2019-02-22T02:31:11.044Z,16.00
2019-02-22T02:31:45.633Z,17.45
2019-02-22T02:32:20.142Z,16.02
2019-02-22T02:32:54.648Z,15.30
2019-02-22T02:33:29.167Z,15.45
2019-02-22T02:34:03.756Z,16.80
2019-02-22T02:34:38.266Z,16.17
2019-02-22T02:35:12.765Z,16.48
2019-02-22T02:35:47.350Z,17.40
2019-02-22T02:36:21.892Z,15.32
2019-02-22T02:36:56.395Z,15.65
2019-02-22T02:37:30.987Z,17.50
2019-02-22T02:38:05.505Z,16.27
2019-02-22T02:38:40.025Z,17.62
2019-02-22T02:39:14.529Z,16.23
2019-02-22T02:39:49.057Z,18.00
2019-02-22T02:40:23.626Z,15.85
2019-02-22T02:41:07.090Z,17.52
2019-02-22T02:41:34.366Z,19.12
2019-02-22T02:42:08.978Z,17.15
2019-02-22T02:42:43.498Z,16.93
2019-02-22T02:43:18.364Z,15.95
2019-02-22T02:43:52.885Z,16.80
2019-02-22T02:44:27.451Z,18.42
2019-02-22T02:45:02.025Z,17.23
2019-02-22T02:45:36.621Z,17.80
2019-02-22T02:46:11.197Z,18.62
2019-02-22T02:46:45.716Z,18.75
2019-02-22T02:47:20.257Z,20.43
2019-02-22T02:47:55.025Z,20.00
2019-02-22T02:48:29.568Z,17.52
2019-02-22T02:49:04.129Z,18.98
2019-02-22T02:49:38.787Z,19.57
2019-02-22T02:50:15.805Z,19.52
2019-02-22T02:50:50.310Z,20.15
2019-02-22T02:51:24.803Z,19.30
2019-02-22T02:51:59.358Z,19.25
2019-02-22T02:52:35.618Z,19.77
2019-02-22T02:53:10.638Z,18.30
2019-02-22T02:53:45.440Z,20.12
2019-02-22T02:54:20.009Z,20.35
2019-02-22T02:54:54.615Z,21.40
2019-02-22T02:55:33.668Z,21.62
2019-02-22T02:56:29.045Z,20.10
2019-02-22T02:57:03.548Z,18.32
2019-02-22T02:57:38.065Z,20.20
2019-02-22T02:58:12.594Z,19.85
2019-02-22T02:58:47.153Z,19.20
2019-02-22T02:59:21.654Z,20.65
2019-02-22T02:59:56.157Z,20.52
2019-02-22T03:00:30.655Z,22.07
2019-02-22T03:01:05.264Z,20.88
2019-02-22T03:01:39.814Z,19.90
2019-02-22T03:02:15.953Z,22.15
2019-02-22T03:02:50.484Z,19.67
2019-02-22T03:03:25.091Z,20.60
2019-02-22T03:03:59.662Z,21.52
2019-02-22T03:04:34.623Z,20.97
2019-02-22T03:05:09.153Z,22.37
2019-02-22T03:06:00.702Z,21.17
2019-02-22T03:06:45.578Z,22.35
2019-02-22T03:07:22.030Z,20.68
2019-02-22T03:07:58.185Z,21.50
2019-02-22T03:08:34.219Z,22.07
2019-02-22T03:09:09.799Z,23.20
2019-02-22T03:09:44.400Z,22.45
2019-02-22T03:10:18.976Z,22.37
2019-02-22T03:10:53.536Z,21.20
2019-02-22T03:11:28.121Z,22.07
2019-02-22T03:12:03.718Z,21.60
2019-02-22T03:12:38.330Z,21.05
2019-02-22T03:13:13.242Z,22.77
2019-02-22T03:13:47.990Z,23.92
2019-02-22T03:14:22.583Z,22.32
2019-02-22T03:14:57.188Z,22.87
2019-02-22T03:15:31.795Z,21.40
2019-02-22T03:16:06.400Z,21.05
2019-02-22T03:16:42.784Z,23.35
2019-02-22T03:17:17.352Z,21.80
2019-02-22T03:17:51.924Z,24.80
2019-02-22T03:18:26.434Z,21.20
2019-02-22T03:19:01.033Z,22.45
2019-02-22T03:19:35.628Z,21.48
2019-02-22T03:20:11.314Z,21.65
2019-02-22T03:20:45.871Z,22.30
2019-02-22T03:21:20.824Z,21.45
2019-02-22T03:21:55.381Z,24.70
2019-02-22T03:22:29.894Z,23.62
2019-02-22T03:23:04.487Z,23.32
2019-02-22T03:23:39.098Z,22.80
2019-02-22T03:24:13.615Z,24.45
2019-02-22T03:24:48.173Z,22.27
2019-02-22T03:25:22.884Z,23.83
2019-02-22T03:25:57.395Z,22.17
2019-02-22T03:26:31.889Z,23.77
2019-02-22T03:27:06.485Z,24.43
2019-02-22T03:27:41.166Z,23.98
2019-02-22T03:28:15.677Z,24.27
2019-02-22T03:28:50.422Z,24.77
2019-02-22T03:29:24.922Z,23.02
2019-02-22T03:29:59.543Z,24.63
2019-02-22T03:30:34.133Z,24.15
2019-02-22T03:31:08.790Z,22.27
2019-02-22T03:31:43.363Z,26.02
2019-02-22T03:32:17.933Z,24.10
2019-02-22T03:32:52.447Z,24.87
2019-02-22T03:33:27.035Z,25.00
2019-02-22T03:34:01.674Z,25.60
2019-02-22T03:34:36.210Z,23.15
2019-02-22T03:35:10.819Z,24.30
2019-02-22T03:35:45.689Z,24.15
2019-02-22T03:36:20.267Z,25.92
2019-02-22T03:36:54.866Z,25.52
2019-02-22T03:37:29.437Z,27.55
2019-02-22T03:38:05.889Z,24.25
2019-02-22T03:38:40.181Z,23.02
2019-02-22T03:39:14.702Z,25.77
2019-02-22T03:39:49.287Z,28.95
2019-02-22T03:40:24.123Z,24.60
2019-02-22T03:40:58.713Z,26.60
2019-02-22T03:41:33.621Z,25.55
2019-02-22T03:42:08.322Z,27.35
2019-02-22T03:42:42.906Z,25.85
2019-02-22T03:43:17.419Z,23.25
2019-02-22T03:43:51.929Z,25.82
2019-02-22T03:44:26.605Z,24.65
2019-02-22T03:45:01.220Z,24.72
2019-02-22T03:45:35.885Z,25.57
2019-02-22T03:46:10.487Z,25.15
2019-02-22T03:46:45.051Z,25.48
2019-02-22T03:47:19.652Z,25.23
2019-02-22T03:47:54.207Z,25.52
2019-02-22T03:48:28.771Z,25.35
2019-02-22T03:49:03.580Z,25.05
2019-02-22T03:49:38.204Z,23.77
2019-02-22T03:50:14.647Z,26.80
2019-02-22T03:50:49.165Z,24.55
2019-02-22T03:51:23.743Z,24.20
2019-02-22T03:51:59.887Z,24.95
2019-02-22T03:52:36.112Z,23.65
2019-02-22T03:53:12.328Z,24.87
2019-02-22T03:53:48.089Z,24.37
2019-02-22T03:54:22.710Z,25.37
2019-02-22T03:54:57.992Z,25.95
2019-02-22T03:55:32.628Z,25.50
2019-02-22T03:56:07.184Z,27.13
2019-02-22T03:56:41.695Z,23.67
2019-02-22T03:57:16.262Z,24.15
2019-02-22T03:57:50.755Z,22.67
2019-02-22T03:58:25.697Z,23.80
2019-02-22T03:59:00.292Z,24.65
2019-02-22T03:59:34.852Z,26.02
2019-02-22T04:00:11.374Z,25.88
2019-02-22T04:00:48.509Z,26.02
2019-02-22T04:01:23.141Z,25.30
2019-02-22T04:01:57.661Z,24.90
2019-02-22T04:02:32.175Z,26.27
2019-02-22T04:03:06.880Z,25.27
2019-02-22T04:03:41.491Z,25.17
2019-02-22T04:04:16.056Z,27.50
2019-02-22T04:04:50.587Z,27.60
2019-02-22T04:05:25.596Z,27.75
2019-02-22T04:06:00.178Z,26.60
2019-02-22T04:06:35.230Z,25.90
2019-02-22T04:07:09.721Z,24.67
2019-02-22T04:07:44.227Z,25.27
2019-02-22T04:08:18.885Z,26.02
2019-02-22T04:08:53.403Z,25.15
2019-02-22T04:09:29.744Z,26.23
2019-02-22T04:10:05.842Z,27.15
2019-02-22T04:10:40.420Z,24.05
2019-02-22T04:11:15.001Z,25.92
2019-02-22T04:11:49.734Z,25.00
2019-02-22T04:12:24.389Z,25.57
2019-02-22T04:12:59.033Z,25.75
2019-02-22T04:13:33.576Z,25.85
2019-02-22T04:14:08.086Z,26.25
2019-02-22T04:15:03.240Z,23.73
2019-02-22T04:15:37.736Z,23.90
2019-02-22T04:16:12.310Z,22.77
2019-02-22T04:16:46.815Z,24.32
2019-02-22T04:17:21.382Z,23.77
2019-02-22T04:17:55.894Z,26.00
2019-02-22T04:18:30.397Z,26.07
2019-02-22T04:19:04.979Z,24.20
2019-02-22T04:19:42.022Z,24.60
2019-02-22T04:20:16.643Z,23.95
2019-02-22T04:20:51.195Z,26.30
2019-02-22T04:21:25.782Z,23.80
2019-02-22T04:22:00.590Z,25.25
2019-02-22T04:22:35.168Z,25.62
2019-02-22T04:23:09.683Z,24.32
2019-02-22T04:23:44.189Z,26.48
2019-02-22T04:24:18.774Z,24.23
2019-02-22T04:24:53.359Z,25.60
2019-02-22T04:25:27.848Z,23.73
2019-02-22T04:26:02.376Z,24.95
2019-02-22T04:26:36.949Z,24.43
2019-02-22T04:27:11.475Z,24.12
2019-02-22T04:27:46.035Z,24.55
2019-02-22T04:28:20.539Z,24.07
2019-02-22T04:28:55.179Z,22.25
2019-02-22T04:29:29.683Z,22.60
2019-02-22T04:30:06.308Z,23.87
2019-02-22T04:30:40.834Z,23.00
2019-02-22T04:31:15.409Z,24.70
2019-02-22T04:31:49.962Z,24.57
2019-02-22T04:32:24.467Z,23.55
2019-02-22T04:32:58.970Z,23.95
2019-02-22T04:33:33.527Z,23.25
2019-02-22T04:34:08.100Z,25.25
2019-02-22T04:34:42.611Z,22.95
2019-02-22T04:35:17.179Z,22.30
2019-02-22T04:35:51.853Z,23.30
2019-02-22T04:36:26.714Z,24.00
2019-02-22T04:37:01.354Z,24.05
2019-02-22T04:37:37.080Z,22.13
2019-02-22T04:38:11.663Z,24.25
2019-02-22T04:38:46.243Z,24.75
2019-02-22T04:39:20.757Z,23.38
2019-02-22T04:39:55.281Z,23.92
2019-02-22T04:40:29.857Z,24.15
2019-02-22T04:41:04.490Z,23.98
2019-02-22T04:41:39.156Z,24.57
2019-02-22T04:42:13.739Z,22.50
2019-02-22T04:42:48.250Z,23.65
2019-02-22T04:43:22.897Z,23.45
2019-02-22T04:43:57.400Z,24.50
2019-02-22T04:44:32.098Z,25.82
2019-02-22T04:45:09.646Z,22.65
2019-02-22T04:45:44.173Z,22.90
2019-02-22T04:46:18.703Z,22.37
2019-02-22T04:46:53.273Z,22.35
2019-02-22T04:47:27.938Z,25.68
2019-02-22T04:48:02.448Z,25.77
2019-02-22T04:48:39.419Z,22.55
2019-02-22T04:49:13.300Z,23.05
2019-02-22T04:49:49.661Z,23.50
2019-02-22T04:50:24.186Z,24.32
2019-02-22T04:50:58.783Z,24.02
2019-02-22T04:51:33.302Z,24.20
2019-02-22T04:52:07.805Z,23.77
2019-02-22T04:52:42.321Z,23.73
2019-02-22T04:53:16.905Z,23.85
2019-02-22T04:53:51.417Z,27.15
2019-02-22T04:54:26.993Z,25.08
2019-02-22T04:55:01.555Z,25.65
2019-02-22T04:55:36.089Z,24.25
2019-02-22T04:56:10.606Z,25.70
2019-02-22T04:56:45.105Z,23.80
2019-02-22T04:57:19.904Z,23.85
2019-02-22T04:57:54.633Z,22.52
2019-02-22T04:58:29.142Z,22.73
2019-02-22T04:59:03.701Z,25.50
2019-02-22T04:59:38.242Z,23.38
2019-02-22T05:00:12.817Z,22.73
2019-02-22T05:00:47.341Z,25.15
2019-02-22T05:01:21.862Z,21.75
2019-02-22T05:01:56.375Z,23.67
2019-02-22T05:02:31.068Z,23.45
2019-02-22T05:03:05.588Z,24.32
2019-02-22T05:03:40.158Z,22.58
2019-02-22T05:04:14.680Z,24.00
2019-02-22T05:04:49.197Z,24.45
2019-02-22T05:05:23.707Z,22.58
2019-02-22T05:05:58.300Z,22.85
2019-02-22T05:06:32.809Z,23.35
2019-02-22T05:07:07.436Z,24.05
2019-02-22T05:07:41.999Z,24.75
2019-02-22T05:08:16.498Z,24.87
2019-02-22T05:08:51.012Z,24.07
2019-02-22T05:09:25.543Z,23.67
2019-02-22T05:10:00.168Z,22.80
2019-02-22T05:10:35.011Z,24.35
2019-02-22T05:11:09.708Z,24.95
2019-02-22T05:11:44.355Z,26.52
2019-02-22T05:12:18.858Z,23.65
2019-02-22T05:12:53.459Z,23.90
2019-02-22T05:13:28.063Z,23.22
2019-02-22T05:14:05.918Z,21.65
2019-02-22T05:14:40.429Z,23.65
2019-02-22T05:15:15.006Z,24.23
2019-02-22T05:15:49.586Z,24.30
2019-02-22T05:16:24.145Z,26.65
2019-02-22T05:16:58.646Z,25.08
2019-02-22T05:17:35.651Z,21.77
2019-02-22T05:18:09.392Z,25.12
2019-02-22T05:18:43.952Z,24.27
2019-02-22T05:19:18.492Z,23.90
2019-02-22T05:19:52.981Z,23.95
2019-02-22T05:20:27.836Z,23.75
2019-02-22T05:21:02.343Z,25.70
2019-02-22T05:21:36.915Z,27.70
2019-02-22T05:22:11.407Z,23.87
2019-02-22T05:22:45.906Z,26.23
2019-02-22T05:23:20.484Z,25.35
2019-02-22T05:23:55.026Z,26.40
2019-02-22T05:24:29.538Z,26.10
2019-02-22T05:25:05.597Z,26.25
2019-02-22T05:25:40.100Z,25.52
2019-02-22T05:26:14.720Z,26.75
2019-02-22T05:26:49.345Z,27.17
2019-02-22T05:27:23.843Z,25.10
2019-02-22T05:27:58.353Z,25.60
2019-02-22T05:28:32.872Z,26.87
2019-02-22T05:29:07.383Z,29.60
2019-02-22T05:29:41.878Z,26.33
2019-02-22T05:30:16.577Z,25.50
2019-02-22T05:30:51.152Z,26.10
2019-02-22T05:31:25.673Z,25.35
2019-02-22T05:32:06.076Z,26.80
2019-02-22T05:32:40.589Z,27.10
2019-02-22T05:33:15.115Z,25.35
2019-02-22T05:33:49.684Z,26.52
2019-02-22T05:34:24.221Z,27.05
2019-02-22T05:34:58.766Z,25.70
2019-02-22T05:35:33.278Z,25.92
2019-02-22T05:36:07.792Z,24.55
2019-02-22T05:36:44.270Z,25.02
2019-02-22T05:37:18.664Z,25.92
2019-02-22T05:37:53.173Z,26.48
2019-02-22T05:38:34.202Z,24.85
2019-02-22T05:39:18.550Z,27.32
2019-02-22T05:39:44.944Z,25.80
2019-02-22T05:40:19.500Z,25.12
2019-02-22T05:40:54.019Z,27.07
2019-02-22T05:41:28.621Z,26.23
2019-02-22T05:42:03.192Z,26.90
2019-02-22T05:42:37.742Z,25.32
2019-02-22T05:43:12.367Z,26.20
2019-02-22T05:43:46.951Z,24.70
2019-02-22T05:44:21.497Z,25.90
2019-02-22T05:44:56.283Z,25.10
2019-02-22T05:45:33.289Z,26.70
2019-02-22T05:46:07.829Z,26.10
2019-02-22T05:46:42.361Z,25.30
2019-02-22T05:47:16.962Z,26.12
2019-02-22T05:47:51.528Z,26.45
2019-02-22T05:48:26.029Z,27.90
2019-02-22T05:49:00.530Z,28.20
2019-02-22T05:49:35.109Z,26.80
2019-02-22T05:50:09.804Z,25.80
2019-02-22T05:50:44.433Z,26.05
2019-02-22T05:51:18.960Z,25.08
2019-02-22T05:51:53.474Z,26.87
2019-02-22T05:52:28.041Z,26.23
2019-02-22T05:53:02.554Z,26.77
2019-02-22T05:53:37.059Z,29.95
2019-02-22T05:54:11.581Z,26.35
2019-02-22T05:54:46.160Z,27.95
2019-02-22T05:55:20.730Z,27.40
2019-02-22T05:55:55.319Z,27.25
2019-02-22T05:56:29.911Z,26.15
2019-02-22T05:57:04.494Z,25.35
2019-02-22T05:57:39.112Z,26.73
2019-02-22T05:58:13.645Z,28.17
2019-02-22T05:58:48.396Z,27.98
2019-02-22T05:59:23.437Z,26.90
2019-02-22T05:59:57.934Z,27.80
2019-02-22T06:00:33.226Z,26.05
2019-02-22T06:01:08.142Z,27.67
2019-02-22T06:01:43.166Z,25.85
2019-02-22T06:02:18.179Z,26.23
2019-02-22T06:02:53.205Z,25.75
2019-02-22T06:03:29.686Z,27.75
2019-02-22T06:04:05.535Z,26.70
2019-02-22T06:04:49.656Z,26.57
2019-02-22T06:05:25.563Z,26.30
2019-02-22T06:06:00.131Z,26.45
2019-02-22T06:06:34.723Z,26.95
2019-02-22T06:07:09.239Z,25.48
2019-02-22T06:07:43.910Z,25.40
2019-02-22T06:08:18.443Z,25.52
2019-02-22T06:08:53.033Z,24.80
2019-02-22T06:09:28.715Z,27.02
2019-02-22T06:10:03.629Z,29.90
2019-02-22T06:10:39.762Z,24.50
2019-02-22T06:11:14.679Z,26.23
2019-02-22T06:11:49.265Z,25.43
2019-02-22T06:12:34.129Z,26.45
2019-02-22T06:13:00.065Z,27.17
2019-02-22T06:13:34.570Z,25.80
2019-02-22T06:14:09.223Z,24.37
2019-02-22T06:14:43.739Z,25.25
2019-02-22T06:15:18.317Z,27.55
2019-02-22T06:15:52.824Z,25.92
2019-02-22T06:16:27.476Z,26.70
2019-02-22T06:17:13.895Z,26.07
2019-02-22T06:17:38.356Z,25.92
2019-02-22T06:18:12.936Z,28.80
2019-02-22T06:18:47.548Z,26.48
2019-02-22T06:19:22.072Z,26.80
2019-02-22T06:19:56.726Z,26.87
2019-02-22T06:20:31.306Z,26.52
2019-02-22T06:21:05.896Z,28.62
2019-02-22T06:21:40.429Z,27.52
2019-02-22T06:22:14.930Z,29.32
2019-02-22T06:22:49.517Z,27.15
2019-02-22T06:23:24.037Z,27.35
2019-02-22T06:23:58.545Z,28.65
2019-02-22T06:24:33.108Z,27.62
2019-02-22T06:25:08.196Z,28.52
2019-02-22T06:25:42.798Z,31.50
2019-02-22T06:26:17.311Z,26.42
2019-02-22T06:26:52.057Z,28.98
2019-02-22T06:27:27.644Z,29.10
2019-02-22T06:28:02.166Z,28.73
2019-02-22T06:28:36.745Z,28.42
2019-02-22T06:29:11.326Z,30.50
2019-02-22T06:29:45.827Z,29.37
2019-02-22T06:30:20.331Z,30.08
2019-02-22T06:30:56.031Z,29.45
2019-02-22T06:31:30.526Z,30.25
2019-02-22T06:32:05.057Z,28.10
2019-02-22T06:32:42.110Z,30.40
2019-02-22T06:33:15.779Z,28.85
2019-02-22T06:33:50.340Z,28.27
2019-02-22T06:34:24.850Z,28.67
2019-02-22T06:34:59.369Z,30.25
2019-02-22T06:35:33.954Z,28.75
2019-02-22T06:36:08.552Z,28.00
2019-02-22T06:36:44.685Z,32.58
2019-02-22T06:37:19.265Z,30.60
2019-02-22T06:37:54.609Z,29.60
2019-02-22T06:38:29.144Z,34.05
2019-02-22T06:39:04.781Z,30.75
2019-02-22T06:39:39.363Z,30.30
2019-02-22T06:40:13.954Z,31.95
2019-02-22T06:40:48.565Z,29.60
2019-02-22T06:41:23.398Z,31.77
2019-02-22T06:41:58.039Z,31.45
2019-02-22T06:42:33.553Z,31.80
2019-02-22T06:43:08.133Z,30.40
2019-02-22T06:43:42.858Z,29.95
2019-02-22T06:44:17.467Z,29.60
2019-02-22T06:44:52.229Z,30.70
2019-02-22T06:45:26.742Z,29.67
2019-02-22T06:46:01.260Z,26.37
2019-02-22T06:46:35.767Z,27.82
2019-02-22T06:47:10.371Z,28.10
2019-02-22T06:47:45.011Z,30.77
2019-02-22T06:48:19.832Z,31.35
2019-02-22T06:48:54.542Z,32.33
2019-02-22T06:49:29.122Z,30.30
2019-02-22T06:50:03.663Z,28.90
2019-02-22T06:50:38.245Z,31.07
2019-02-22T06:51:12.888Z,30.43
2019-02-22T06:51:47.542Z,30.72
2019-02-22T06:52:22.041Z,30.37
2019-02-22T06:52:56.573Z,31.30
2019-02-22T06:53:31.230Z,31.75
2019-02-22T06:54:05.815Z,30.82
2019-02-22T06:54:42.814Z,29.95
2019-02-22T06:55:19.051Z,29.15
2019-02-22T06:55:53.738Z,29.87
2019-02-22T06:56:28.282Z,31.27
2019-02-22T06:57:02.807Z,31.50
2019-02-22T06:57:37.445Z,29.95
2019-02-22T06:58:11.966Z,31.85
2019-02-22T06:58:46.502Z,31.35
2019-02-22T06:59:21.469Z,30.62
2019-02-22T06:59:56.177Z,31.07
2019-02-22T07:00:30.769Z,31.25
2019-02-22T07:01:05.285Z,31.45
2019-02-22T07:01:39.786Z,30.40
2019-02-22T07:02:14.303Z,30.85
2019-02-22T07:02:48.827Z,31.35
2019-02-22T07:03:23.678Z,31.27
2019-02-22T07:03:58.206Z,30.75
2019-02-22T07:04:33.101Z,31.15
2019-02-22T07:05:08.263Z,28.45
2019-02-22T07:05:42.759Z,28.47
2019-02-22T07:06:17.299Z,30.02
2019-02-22T07:06:51.812Z,30.45
2019-02-22T07:07:26.411Z,30.88
2019-02-22T07:08:01.129Z,31.65
2019-02-22T07:08:37.720Z,30.90
2019-02-22T07:09:12.241Z,28.57
2019-02-22T07:09:50.467Z,31.60
2019-02-22T07:10:25.188Z,30.62
2019-02-22T07:11:16.489Z,30.48
2019-02-22T07:11:55.748Z,28.40
2019-02-22T07:12:34.933Z,29.75
2019-02-22T07:13:12.703Z,29.23
2019-02-22T07:13:47.953Z,28.35
2019-02-22T07:14:22.853Z,28.70
2019-02-22T07:14:57.373Z,29.12
2019-02-22T07:15:31.983Z,28.32
2019-02-22T07:16:06.560Z,26.87
2019-02-22T07:16:48.373Z,28.02
2019-02-22T07:17:22.889Z,27.67
2019-02-22T07:17:57.389Z,27.52
2019-02-22T07:18:32.260Z,30.90
2019-02-22T07:19:06.771Z,27.73
2019-02-22T07:19:41.441Z,28.55
2019-02-22T07:20:16.022Z,28.62
2019-02-22T07:20:50.627Z,28.47
2019-02-22T07:21:25.144Z,30.37
2019-02-22T07:21:59.733Z,26.45
2019-02-22T07:22:34.323Z,29.67
2019-02-22T07:23:09.838Z,30.48
2019-02-22T07:23:44.425Z,27.73
2019-02-22T07:24:19.003Z,27.15
2019-02-22T07:24:53.540Z,29.60
2019-02-22T07:25:28.369Z,29.60
2019-02-22T07:26:03.013Z,29.35
2019-02-22T07:26:37.702Z,27.65
2019-02-22T07:27:12.320Z,27.45
2019-02-22T07:27:47.006Z,26.85
2019-02-22T07:28:23.557Z,26.25
2019-02-22T07:28:57.912Z,26.80
2019-02-22T07:29:32.608Z,29.98
2019-02-22T07:30:10.240Z,28.40